Terminal Aerodrome Forecast
Issued by NWS Cleveland, OH

Home | Current Version | Previous Version | Graphics & Text | Print | Product List | Glossary On
Versions: 1 2 3 4 5 6 7 8 9 10 11 12 13 14 15 16 17 18 19 20 21 22 23
000
FTUS41 KCLE 191900 AAB
TAFCAK
TAF AMD
KCAK 191940Z 1920/2018 18008KT P6SM SCT015 OVC028
      TEMPO 1920/1923 3SM -SHRA OVC015
     FM200000 00000KT P6SM BKN035
     FM200800 00000KT 1SM BR BKN005
     FM201400 00000KT P6SM BKN012
     FM201600 20004KT P6SM BKN025=

USA.gov is the U.S. government's official web portal to all federal, state and local government web resources and services.